Terminal Aerodrome Forecast
Issued by NWS Greer, SC

Home | Current Version | Previous Version | Text Only | Print | Product List | Glossary On
Versions: 1 2 3 4 5 6 7 8 9 10 11 12 13 14 15 16 17 18 19 20 21 22 23 24 25 26 27 28 29 30 31 32 33 34 35 36 37 38 39 40 41 42
000
FTUS42 KGSP 202300
TAFAVL
TAF
KAVL 202332Z 2100/2124 18004KT P6SM SKC
     FM210300 00000KT P6SM FEW250
     FM210800 00000KT 4SM BR SCT014
     FM211000 31003KT 1SM BR BKN006
     FM211400 32004KT P6SM SCT025
     FM212000 30008KT P6SM VCSH BKN045=

USA.gov is the U.S. government's official web portal to all federal, state and local government web resources and services.